sensor_id;sensor_type;location;lat;lon;timestamp;P1;durP1;ratioP1;P2;durP2;ratioP2
43901;SDS011;29562;40.390;-3.706;2022-12-05T00:05:28;37.03;;;21.25;;
43901;SDS011;29562;40.390;-3.706;2022-12-05T00:15:34;39.95;;;21.58;;
43901;SDS011;29562;40.390;-3.706;2022-12-05T00:25:38;39.13;;;21.08;;
43901;SDS011;29562;40.390;-3.706;2022-12-05T00:35:41;39.55;;;21.20;;
43901;SDS011;29562;40.390;-3.706;2022-12-05T00:45:43;39.58;;;21.77;;
43901;SDS011;29562;40.390;-3.706;2022-12-05T00:55:45;37.35;;;20.55;;
43901;SDS011;29562;40.390;-3.706;2022-12-05T01:05:47;33.90;;;19.70;;
43901;SDS011;29562;40.390;-3.706;2022-12-05T01:15:49;35.22;;;19.48;;
43901;SDS011;29562;40.390;-3.706;2022-12-05T01:25:52;28.75;;;16.83;;
43901;SDS011;29562;40.390;-3.706;2022-12-05T01:35:54;28.30;;;15.52;;
43901;SDS011;29562;40.390;-3.706;2022-12-05T01:45:57;23.88;;;13.98;;
43901;SDS011;29562;40.390;-3.706;2022-12-05T01:56:01;22.92;;;12.57;;
43901;SDS011;29562;40.390;-3.706;2022-12-05T02:06:02;23.35;;;11.80;;
43901;SDS011;29562;40.390;-3.706;2022-12-05T02:16:11;23.25;;;13.27;;
43901;SDS011;29562;40.390;-3.706;2022-12-05T02:36:31;21.75;;;12.27;;
43901;SDS011;29562;40.390;-3.706;2022-12-05T02:46:46;20.30;;;12.00;;
43901;SDS011;29562;40.390;-3.706;2022-12-05T02:56:55;18.60;;;11.30;;
43901;SDS011;29562;40.390;-3.706;2022-12-05T03:07:01;20.23;;;11.52;;
43901;SDS011;29562;40.390;-3.706;2022-12-05T03:17:09;25.77;;;14.38;;
43901;SDS011;29562;40.390;-3.706;2022-12-05T03:47:48;24.85;;;15.88;;
43901;SDS011;29562;40.390;-3.706;2022-12-05T03:57:59;30.17;;;15.80;;
43901;SDS011;29562;40.390;-3.706;2022-12-05T04:08:05;23.90;;;13.43;;
43901;SDS011;29562;40.390;-3.706;2022-12-05T04:18:09;24.58;;;13.85;;
43901;SDS011;29562;40.390;-3.706;2022-12-05T04:48:51;23.75;;;13.48;;
43901;SDS011;29562;40.390;-3.706;2022-12-05T04:58:58;22.15;;;12.50;;
43901;SDS011;29562;40.390;-3.706;2022-12-05T05:09:01;22.38;;;11.85;;
43901;SDS011;29562;40.390;-3.706;2022-12-05T05:19:22;19.40;;;10.40;;
43901;SDS011;29562;40.390;-3.706;2022-12-05T05:29:44;17.77;;;9.90;;
43901;SDS011;29562;40.390;-3.706;2022-12-05T05:40:06;17.73;;;9.38;;
43901;SDS011;29562;40.390;-3.706;2022-12-05T05:50:28;15.77;;;8.80;;
43901;SDS011;29562;40.390;-3.706;2022-12-05T06:00:37;15.70;;;8.23;;
43901;SDS011;29562;40.390;-3.706;2022-12-05T06:10:44;12.63;;;7.45;;
43901;SDS011;29562;40.390;-3.706;2022-12-05T06:20:54;15.07;;;8.13;;
43901;SDS011;29562;40.390;-3.706;2022-12-05T06:30:58;14.45;;;8.35;;
43901;SDS011;29562;40.390;-3.706;2022-12-05T06:41:06;13.48;;;7.60;;
43901;SDS011;29562;40.390;-3.706;2022-12-05T06:51:09;11.95;;;7.15;;
43901;SDS011;29562;40.390;-3.706;2022-12-05T07:01:12;12.57;;;7.45;;
43901;SDS011;29562;40.390;-3.706;2022-12-05T07:11:33;11.68;;;6.93;;
43901;SDS011;29562;40.390;-3.706;2022-12-05T07:21:36;13.32;;;7.43;;
43901;SDS011;29562;40.390;-3.706;2022-12-05T07:31:38;13.63;;;6.95;;
43901;SDS011;29562;40.390;-3.706;2022-12-05T07:41:40;12.77;;;6.65;;
43901;SDS011;29562;40.390;-3.706;2022-12-05T07:51:42;14.60;;;7.80;;
43901;SDS011;29562;40.390;-3.706;2022-12-05T08:01:44;10.77;;;6.53;;
43901;SDS011;29562;40.390;-3.706;2022-12-05T08:11:46;10.73;;;6.60;;
43901;SDS011;29562;40.390;-3.706;2022-12-05T08:21:49;10.98;;;5.93;;
43901;SDS011;29562;40.390;-3.706;2022-12-05T08:31:53;11.60;;;6.78;;
43901;SDS011;29562;40.390;-3.706;2022-12-05T08:41:55;9.13;;;5.15;;
43901;SDS011;29562;40.390;-3.706;2022-12-05T08:51:56;11.05;;;5.45;;
43901;SDS011;29562;40.390;-3.706;2022-12-05T09:01:59;10.25;;;5.22;;
43901;SDS011;29562;40.390;-3.706;2022-12-05T09:12:01;9.27;;;5.80;;
43901;SDS011;29562;40.390;-3.706;2022-12-05T09:22:03;9.80;;;5.63;;
43901;SDS011;29562;40.390;-3.706;2022-12-05T09:32:06;11.68;;;5.90;;
43901;SDS011;29562;40.390;-3.706;2022-12-05T09:52:10;10.95;;;6.15;;
43901;SDS011;29562;40.390;-3.706;2022-12-05T10:12:23;9.95;;;5.80;;
43901;SDS011;29562;40.390;-3.706;2022-12-05T10:22:51;9.43;;;5.75;;
43901;SDS011;29562;40.390;-3.706;2022-12-05T10:32:59;13.23;;;5.55;;
43901;SDS011;29562;40.390;-3.706;2022-12-05T10:43:07;6.55;;;4.13;;
43901;SDS011;29562;40.390;-3.706;2022-12-05T10:53:14;12.80;;;5.88;;
43901;SDS011;29562;40.390;-3.706;2022-12-05T11:03:29;10.57;;;6.53;;
43901;SDS011;29562;40.390;-3.706;2022-12-05T11:13:33;13.30;;;6.57;;
43901;SDS011;29562;40.390;-3.706;2022-12-05T11:23:35;12.80;;;6.25;;
43901;SDS011;29562;40.390;-3.706;2022-12-05T11:33:37;12.07;;;6.75;;
43901;SDS011;29562;40.390;-3.706;2022-12-05T12:13:57;11.30;;;7.05;;
43901;SDS011;29562;40.390;-3.706;2022-12-05T13:04:33;14.25;;;7.88;;
43901;SDS011;29562;40.390;-3.706;2022-12-05T13:14:44;12.82;;;7.80;;
43901;SDS011;29562;40.390;-3.706;2022-12-05T13:24:49;17.42;;;9.82;;
43901;SDS011;29562;40.390;-3.706;2022-12-05T13:34:52;14.63;;;8.40;;
43901;SDS011;29562;40.390;-3.706;2022-12-05T13:45:04;14.27;;;8.40;;
43901;SDS011;29562;40.390;-3.706;2022-12-05T14:15:36;17.30;;;8.43;;
43901;SDS011;29562;40.390;-3.706;2022-12-05T14:35:55;13.32;;;8.73;;
43901;SDS011;29562;40.390;-3.706;2022-12-05T14:46:07;13.63;;;8.43;;
43901;SDS011;29562;40.390;-3.706;2022-12-05T14:56:17;14.77;;;8.35;;
43901;SDS011;29562;40.390;-3.706;2022-12-05T15:06:21;15.07;;;9.40;;
43901;SDS011;29562;40.390;-3.706;2022-12-05T15:16:26;13.88;;;8.90;;
43901;SDS011;29562;40.390;-3.706;2022-12-05T15:26:44;16.45;;;9.57;;
43901;SDS011;29562;40.390;-3.706;2022-12-05T15:47:23;22.52;;;12.82;;
43901;SDS011;29562;40.390;-3.706;2022-12-05T15:57:35;21.95;;;11.55;;
43901;SDS011;29562;40.390;-3.706;2022-12-05T16:07:38;22.92;;;11.45;;
43901;SDS011;29562;40.390;-3.706;2022-12-05T16:17:51;24.95;;;12.57;;
43901;SDS011;29562;40.390;-3.706;2022-12-05T16:27:54;22.77;;;12.05;;
43901;SDS011;29562;40.390;-3.706;2022-12-05T16:48:29;17.77;;;9.85;;
43901;SDS011;29562;40.390;-3.706;2022-12-05T16:58:31;22.17;;;12.40;;
43901;SDS011;29562;40.390;-3.706;2022-12-05T17:08:35;18.55;;;11.07;;
43901;SDS011;29562;40.390;-3.706;2022-12-05T17:18:37;20.60;;;10.80;;
43901;SDS011;29562;40.390;-3.706;2022-12-05T17:28:39;20.08;;;10.60;;
43901;SDS011;29562;40.390;-3.706;2022-12-05T17:38:41;19.95;;;12.20;;
43901;SDS011;29562;40.390;-3.706;2022-12-05T17:48:44;21.48;;;11.75;;
43901;SDS011;29562;40.390;-3.706;2022-12-05T17:58:46;20.65;;;11.00;;
43901;SDS011;29562;40.390;-3.706;2022-12-05T18:08:49;22.35;;;11.75;;
43901;SDS011;29562;40.390;-3.706;2022-12-05T18:18:51;18.55;;;10.98;;
43901;SDS011;29562;40.390;-3.706;2022-12-05T18:28:54;19.25;;;11.82;;
43901;SDS011;29562;40.390;-3.706;2022-12-05T18:38:58;19.67;;;11.57;;
43901;SDS011;29562;40.390;-3.706;2022-12-05T18:49:02;18.90;;;11.57;;
43901;SDS011;29562;40.390;-3.706;2022-12-05T18:59:09;19.67;;;11.60;;
43901;SDS011;29562;40.390;-3.706;2022-12-05T19:09:12;20.20;;;10.95;;
43901;SDS011;29562;40.390;-3.706;2022-12-05T19:19:15;14.32;;;9.38;;
43901;SDS011;29562;40.390;-3.706;2022-12-05T19:29:17;16.33;;;9.40;;
43901;SDS011;29562;40.390;-3.706;2022-12-05T19:39:21;15.73;;;10.43;;
43901;SDS011;29562;40.390;-3.706;2022-12-05T19:49:25;17.20;;;10.02;;
43901;SDS011;29562;40.390;-3.706;2022-12-05T19:59:26;16.85;;;10.32;;
43901;SDS011;29562;40.390;-3.706;2022-12-05T20:09:28;18.38;;;9.50;;
43901;SDS011;29562;40.390;-3.706;2022-12-05T20:19:31;17.70;;;9.80;;
43901;SDS011;29562;40.390;-3.706;2022-12-05T20:29:33;33.95;;;20.80;;
43901;SDS011;29562;40.390;-3.706;2022-12-05T20:39:38;20.58;;;11.73;;
43901;SDS011;29562;40.390;-3.706;2022-12-05T20:49:40;20.33;;;11.10;;
43901;SDS011;29562;40.390;-3.706;2022-12-05T20:59:42;20.20;;;11.63;;
43901;SDS011;29562;40.390;-3.706;2022-12-05T21:09:44;22.15;;;13.13;;
43901;SDS011;29562;40.390;-3.706;2022-12-05T21:19:46;17.95;;;10.65;;
43901;SDS011;29562;40.390;-3.706;2022-12-05T21:29:48;18.17;;;11.25;;
43901;SDS011;29562;40.390;-3.706;2022-12-05T21:39:50;20.67;;;10.70;;
43901;SDS011;29562;40.390;-3.706;2022-12-05T21:49:52;17.90;;;10.93;;
43901;SDS011;29562;40.390;-3.706;2022-12-05T21:59:54;20.10;;;11.05;;
43901;SDS011;29562;40.390;-3.706;2022-12-05T22:09:57;27.92;;;15.30;;
43901;SDS011;29562;40.390;-3.706;2022-12-05T22:19:58;17.77;;;10.38;;
43901;SDS011;29562;40.390;-3.706;2022-12-05T22:30:00;15.88;;;8.90;;
43901;SDS011;29562;40.390;-3.706;2022-12-05T22:40:02;15.73;;;8.75;;
43901;SDS011;29562;40.390;-3.706;2022-12-05T22:50:05;15.68;;;8.18;;
43901;SDS011;29562;40.390;-3.706;2022-12-05T23:00:07;19.02;;;8.52;;
43901;SDS011;29562;40.390;-3.706;2022-12-05T23:10:10;15.75;;;8.50;;
43901;SDS011;29562;40.390;-3.706;2022-12-05T23:20:12;16.98;;;8.80;;
43901;SDS011;29562;40.390;-3.706;2022-12-05T23:30:15;17.08;;;8.90;;
43901;SDS011;29562;40.390;-3.706;2022-12-05T23:40:17;18.77;;;8.90;;
43901;SDS011;29562;40.390;-3.706;2022-12-05T23:50:19;23.38;;;11.70;;
